Time;durP1;ratioP1;P1;durP2;ratioP2;P2;SDS_P1;SDS_P2;PMS_P1;PMS_P2;Temp;Humidity;BMP_temperature;BMP_pressure;BME280_temperature;BME280_humidity;BME280_pressure;Samples;Min_cycle;Max_cycle;Signal;HPM_P1;HPM_P2
2023/12/01 00:01:22;;;;;;;39.22;17.52;;;0.80;99.90;;;;;;5013592;28;20037;-76
2023/12/01 00:03:48;;;;;;;31.83;15.57;;;0.80;99.90;;;;;;5018492;28;20370;-76
2023/12/01 00:06:14;;;;;;;30.83;15.82;;;0.80;99.90;;;;;;5015377;28;20045;-76
2023/12/01 00:08:40;;;;;;;28.33;14.98;;;0.80;99.90;;;;;;5015515;28;20068;-77
2023/12/01 00:11:05;;;;;;;27.58;14.27;;;0.80;99.90;;;;;;4990047;28;20466;-77
2023/12/01 00:13:31;;;;;;;26.20;14.82;;;0.80;99.90;;;;;;4998740;28;20037;-76
2023/12/01 00:15:57;;;;;;;29.23;15.52;;;0.80;99.90;;;;;;5013445;28;20477;-77
2023/12/01 00:18:23;;;;;;;30.15;15.95;;;0.70;99.90;;;;;;5018405;28;20040;-78
2023/12/01 00:20:51;;;;;;;34.72;17.73;;;0.70;99.90;;;;;;5013250;28;20053;-77
2023/12/01 00:23:17;;;;;;;32.85;16.85;;;0.70;99.90;;;;;;5020432;28;20145;-77
2023/12/01 00:25:42;;;;;;;30.45;16.55;;;0.70;99.90;;;;;;5003977;28;20116;-75
2023/12/01 00:28:09;;;;;;;33.35;17.38;;;0.70;99.90;;;;;;4986614;28;20071;-75
2023/12/01 00:30:35;;;;;;;34.70;17.40;;;0.90;99.90;;;;;;5004750;28;20045;-74
2023/12/01 00:33:01;;;;;;;32.88;17.40;;;0.80;99.90;;;;;;4989704;28;20046;-76
2023/12/01 00:35:27;;;;;;;31.92;16.58;;;0.70;99.90;;;;;;5010727;28;20466;-75
2023/12/01 00:37:52;;;;;;;33.97;18.05;;;0.70;99.90;;;;;;5011077;28;20132;-75
2023/12/01 00:40:19;;;;;;;36.33;20.23;;;0.70;99.90;;;;;;5009491;28;20480;-75
2023/12/01 00:42:45;;;;;;;29.70;17.15;;;0.60;99.90;;;;;;5007451;28;20080;-76
2023/12/01 00:45:11;;;;;;;30.38;18.05;;;0.60;99.90;;;;;;5021049;28;20049;-76
2023/12/01 00:47:37;;;;;;;33.70;18.67;;;0.60;99.90;;;;;;5006221;28;20045;-75
2023/12/01 00:50:03;;;;;;;29.45;17.38;;;0.60;99.90;;;;;;5022799;28;20485;-75
2023/12/01 00:52:28;;;;;;;28.45;15.80;;;0.50;99.90;;;;;;4997137;28;20048;-76
2023/12/01 00:54:54;;;;;;;27.85;16.15;;;0.50;99.90;;;;;;5029736;28;20107;-75
2023/12/01 00:57:20;;;;;;;31.20;17.65;;;0.50;99.90;;;;;;5032111;28;20069;-78
2023/12/01 00:59:45;;;;;;;28.65;16.35;;;0.60;99.90;;;;;;5028355;28;20080;-75
2023/12/01 01:02:11;;;;;;;30.08;17.00;;;0.40;99.90;;;;;;5026790;28;20041;-76
2023/12/01 01:04:37;;;;;;;27.15;15.88;;;0.30;99.90;;;;;;5013071;28;20405;-75
2023/12/01 01:07:03;;;;;;;27.83;16.65;;;0.30;99.90;;;;;;5024555;28;20037;-75
2023/12/01 01:09:29;;;;;;;28.73;16.90;;;0.20;99.90;;;;;;5037909;28;20431;-76
2023/12/01 01:11:54;;;;;;;28.65;16.48;;;0.20;99.90;;;;;;5010029;28;20141;-74
2023/12/01 01:14:20;;;;;;;30.73;17.38;;;0.10;99.90;;;;;;5009067;28;20049;-76
2023/12/01 01:16:49;;;;;;;32.25;17.48;;;0.10;99.90;;;;;;5008971;28;20152;-76
2023/12/01 01:19:14;;;;;;;32.10;17.52;;;0.00;99.90;;;;;;4991074;28;20121;-76
2023/12/01 01:21:43;;;;;;;33.38;19.17;;;0.00;99.90;;;;;;5006000;28;20899;-77
2023/12/01 01:24:09;;;;;;;37.90;19.95;;;0.10;99.90;;;;;;4999267;28;20060;-75
2023/12/01 01:26:35;;;;;;;34.70;19.05;;;0.00;99.90;;;;;;5008845;28;20041;-75
2023/12/01 01:29:00;;;;;;;33.72;18.30;;;0.10;99.90;;;;;;5018071;28;20053;-75
2023/12/01 01:31:26;;;;;;;34.38;18.55;;;0.00;99.90;;;;;;5014938;28;20654;-75
2023/12/01 01:33:52;;;;;;;32.33;17.15;;;-0.10;99.90;;;;;;5003111;28;20381;-76
2023/12/01 01:36:18;;;;;;;33.83;18.20;;;0.00;99.90;;;;;;5008988;28;20091;-75
2023/12/01 01:38:44;;;;;;;30.30;17.05;;;0.00;99.90;;;;;;5006753;28;20072;-76
2023/12/01 01:41:09;;;;;;;32.47;17.58;;;0.00;99.90;;;;;;5015943;28;20040;-75
2023/12/01 01:43:36;;;;;;;31.70;17.65;;;-0.10;99.90;;;;;;5000073;28;20048;-75
2023/12/01 01:46:09;;;;;;;33.17;17.30;;;-0.10;99.90;;;;;;5001844;28;20417;-75
2023/12/01 01:48:35;;;;;;;31.52;17.63;;;0.00;99.90;;;;;;5007188;28;20080;-75
2023/12/01 01:51:02;;;;;;;33.67;16.40;;;-0.20;99.90;;;;;;5011055;28;20052;-75
2023/12/01 01:53:29;;;;;;;35.85;17.98;;;-0.20;99.90;;;;;;5011189;28;20041;-75
2023/12/01 01:55:58;;;;;;;33.17;17.90;;;-0.20;99.90;;;;;;5007575;28;20095;-75
2023/12/01 01:58:27;;;;;;;;;;;-0.30;99.90;;;;;;5020896;28;20076;-75
2023/12/01 02:00:53;;;;;;;35.95;16.08;;;-0.30;99.90;;;;;;5006257;28;19921;-75
2023/12/01 02:03:21;;;;;;;30.40;15.25;;;-0.30;99.90;;;;;;4998903;28;20045;-76
2023/12/01 02:05:50;;;;;;;34.00;16.65;;;-0.40;99.90;;;;;;5009088;28;20053;-75
2023/12/01 02:08:27;;;;;;;29.65;16.40;;;-0.30;99.90;;;;;;5010865;28;20046;-75
2023/12/01 02:10:57;;;;;;;36.63;17.23;;;-0.30;99.90;;;;;;5003471;28;20041;-75
2023/12/01 02:13:24;;;;;;;35.03;17.65;;;-0.40;99.90;;;;;;5020694;28;20175;-75
2023/12/01 02:15:50;;;;;;;39.75;19.23;;;-0.30;99.90;;;;;;5010681;28;20144;-75
2023/12/01 02:18:23;;;;;;;35.97;18.27;;;-0.40;99.90;;;;;;5011341;28;20456;-76
2023/12/01 02:20:54;;;;;;;38.60;18.65;;;-0.40;99.90;;;;;;5018116;28;20068;-75
2023/12/01 02:23:20;;;;;;;36.83;17.52;;;-0.40;99.90;;;;;;4988727;28;20133;-75
2023/12/01 02:25:47;;;;;;;38.05;19.23;;;-0.40;99.90;;;;;;5008486;28;20179;-75
2023/12/01 02:28:13;;;;;;;38.25;18.95;;;-0.40;99.90;;;;;;4989489;28;20045;-76
2023/12/01 02:30:39;;;;;;;42.55;19.25;;;-0.30;99.90;;;;;;4995788;28;20080;-75
2023/12/01 02:33:05;;;;;;;42.50;20.75;;;-0.30;99.90;;;;;;5022343;28;20056;-75
2023/12/01 02:35:32;;;;;;;45.58;19.13;;;-0.30;99.90;;;;;;5014376;28;20029;-75
2023/12/01 02:37:58;;;;;;;45.15;20.35;;;-0.30;99.90;;;;;;5005982;28;20045;-75
2023/12/01 02:40:25;;;;;;;45.60;20.77;;;-0.30;99.90;;;;;;5019171;28;20061;-75
2023/12/01 02:42:52;;;;;;;46.00;21.80;;;-0.20;99.90;;;;;;5006756;28;20553;-75
2023/12/01 02:45:19;;;;;;;42.20;21.30;;;-0.30;99.90;;;;;;5008063;28;20115;-76
2023/12/01 02:47:47;;;;;;;46.47;21.38;;;-0.30;99.90;;;;;;4984929;28;20049;-76
2023/12/01 02:50:16;;;;;;;44.42;20.80;;;-0.30;99.90;;;;;;4999144;28;20048;-76
2023/12/01 02:52:42;;;;;;;40.13;18.95;;;-0.30;99.90;;;;;;5006384;28;20041;-76
2023/12/01 02:55:08;;;;;;;46.83;20.45;;;-0.40;99.90;;;;;;5006520;28;20094;-75
2023/12/01 02:57:39;;;;;;;44.75;20.55;;;-0.50;99.90;;;;;;5013060;28;20388;-76
2023/12/01 03:00:13;;;;;;;43.88;19.75;;;-0.40;99.90;;;;;;5009008;28;20112;-75
2023/12/01 03:02:42;;;;;;;44.60;20.05;;;-0.60;99.90;;;;;;4998717;28;20038;-74
2023/12/01 03:05:09;;;;;;;46.35;20.27;;;-0.60;99.90;;;;;;5008731;28;20072;-75
2023/12/01 03:07:39;;;;;;;43.83;20.48;;;-0.60;99.90;;;;;;5009320;28;20115;-75
2023/12/01 03:10:07;;;;;;;41.63;19.25;;;-0.70;99.90;;;;;;5003129;28;20436;-75
2023/12/01 03:12:33;;;;;;;43.55;19.80;;;-0.60;99.90;;;;;;5007156;28;20492;-75
2023/12/01 03:14:59;;;;;;;43.72;19.27;;;-0.60;99.90;;;;;;5011341;28;20055;-76
2023/12/01 03:17:26;;;;;;;42.08;20.23;;;-0.70;99.90;;;;;;4989599;28;20033;-75
2023/12/01 03:19:52;;;;;;;39.90;19.50;;;-0.60;99.90;;;;;;5013764;28;20120;-76
2023/12/01 03:22:18;;;;;;;40.08;19.58;;;-0.70;99.90;;;;;;5004877;28;20042;-75
2023/12/01 03:24:47;;;;;;;39.92;19.17;;;-0.70;99.90;;;;;;5010690;28;20133;-75
2023/12/01 03:27:16;;;;;;;39.80;18.47;;;-0.70;99.90;;;;;;5030811;28;20037;-76
2023/12/01 03:29:42;;;;;;;42.15;20.58;;;-0.70;99.90;;;;;;5013291;28;20049;-76
2023/12/01 03:32:08;;;;;;;39.28;18.92;;;-0.80;99.90;;;;;;5008757;28;20048;-76
2023/12/01 03:34:34;;;;;;;43.35;19.38;;;-0.80;99.90;;;;;;5016210;28;20542;-75
2023/12/01 03:37:00;;;;;;;39.03;17.67;;;-0.80;99.90;;;;;;5011677;28;20154;-75
2023/12/01 03:39:26;;;;;;;41.60;19.70;;;-0.70;99.90;;;;;;5015778;28;20129;-76
2023/12/01 03:41:52;;;;;;;36.35;18.80;;;-0.80;99.90;;;;;;4996099;28;20132;-76
2023/12/01 03:44:18;;;;;;;43.92;19.67;;;-0.80;99.90;;;;;;5024077;28;20399;-75
2023/12/01 03:46:48;;;;;;;41.72;18.80;;;-0.90;99.90;;;;;;5010809;28;20041;-76
2023/12/01 03:49:13;;;;;;;37.83;18.35;;;-0.90;99.90;;;;;;5010881;28;20045;-75
2023/12/01 03:51:39;;;;;;;39.75;19.52;;;-0.80;99.90;;;;;;5007253;28;20037;-75
2023/12/01 03:54:05;;;;;;;35.67;18.45;;;-0.80;99.90;;;;;;5005138;28;20420;-75
2023/12/01 03:56:31;;;;;;;39.08;18.73;;;-0.90;99.90;;;;;;5028373;28;20116;-76
2023/12/01 03:58:57;;;;;;;36.92;18.70;;;-0.90;99.90;;;;;;5018503;28;20040;-76
2023/12/01 04:01:28;;;;;;;39.85;19.05;;;-0.90;99.90;;;;;;5004426;28;20462;-75
2023/12/01 04:03:54;;;;;;;41.30;19.40;;;-0.90;99.90;;;;;;5005375;28;20045;-77
2023/12/01 04:06:20;;;;;;;33.20;16.90;;;-1.00;99.90;;;;;;4996375;28;20280;-76
2023/12/01 04:08:46;;;;;;;42.28;18.40;;;-0.90;99.90;;;;;;4998962;28;20037;-75
2023/12/01 04:11:11;;;;;;;36.42;17.77;;;-1.00;99.90;;;;;;5030196;28;20722;-76
2023/12/01 04:13:37;;;;;;;35.13;17.80;;;-1.00;99.90;;;;;;5003958;28;20073;-75
2023/12/01 04:16:03;;;;;;;38.45;16.30;;;-1.00;99.90;;;;;;4994311;28;20434;-75
2023/12/01 04:18:30;;;;;;;37.95;17.38;;;-1.10;99.90;;;;;;5003973;28;20677;-75
2023/12/01 04:20:58;;;;;;;33.85;17.38;;;-1.10;99.90;;;;;;5001754;28;20073;-75
2023/12/01 04:23:24;;;;;;;33.47;16.13;;;-1.10;99.90;;;;;;5010645;28;20069;-75
2023/12/01 04:25:50;;;;;;;34.08;16.13;;;-1.20;99.90;;;;;;4987561;28;20077;-75
2023/12/01 04:28:16;;;;;;;35.35;17.20;;;-1.20;99.90;;;;;;5016069;28;20068;-75
2023/12/01 04:30:45;;;;;;;33.17;15.43;;;-1.20;99.90;;;;;;5011679;28;20048;-75
2023/12/01 04:33:13;;;;;;;30.65;16.20;;;-1.20;99.90;;;;;;5027591;28;20049;-75
2023/12/01 04:35:39;;;;;;;32.65;16.52;;;-1.10;99.90;;;;;;4998385;28;20053;-75
2023/12/01 04:38:05;;;;;;;35.70;16.23;;;-1.20;99.90;;;;;;4990642;28;20048;-75
2023/12/01 04:40:32;;;;;;;30.08;16.33;;;-1.30;99.90;;;;;;5000922;28;20042;-75
2023/12/01 04:42:58;;;;;;;29.13;14.90;;;-1.30;99.90;;;;;;5014276;28;20038;-75
2023/12/01 04:45:26;;;;;;;28.83;14.55;;;-1.30;99.90;;;;;;5005102;28;20046;-75
2023/12/01 04:47:54;;;;;;;33.60;16.10;;;-0.90;99.90;;;;;;5004725;28;20049;-75
2023/12/01 04:50:22;;;;;;;32.30;16.30;;;-1.40;99.90;;;;;;5004549;28;20117;-75
2023/12/01 04:52:50;;;;;;;34.83;17.17;;;-1.40;99.90;;;;;;5004293;28;20045;-76
2023/12/01 04:55:18;;;;;;;32.30;15.45;;;-1.40;99.90;;;;;;5008264;28;20041;-74
2023/12/01 04:57:47;;;;;;;34.10;16.98;;;-1.30;99.90;;;;;;5007396;28;20049;-75
2023/12/01 05:00:25;;;;;;;30.63;15.77;;;-1.50;99.90;;;;;;5001958;28;20100;-75
2023/12/01 05:03:06;;;;;;;32.55;16.05;;;-1.50;99.90;;;;;;5016524;28;20048;-75
2023/12/01 05:05:35;;;;;;;30.10;14.43;;;-1.50;99.90;;;;;;4991190;28;20086;-75
2023/12/01 05:08:07;;;;;;;29.30;14.90;;;-1.60;99.90;;;;;;5007625;28;20033;-75
2023/12/01 05:10:34;;;;;;;28.58;14.88;;;-1.60;99.90;;;;;;5012595;28;20111;-76
2023/12/01 05:13:04;;;;;;;34.63;15.65;;;-1.60;99.90;;;;;;5010060;28;20111;-75
2023/12/01 05:15:32;;;;;;;32.58;15.48;;;-1.70;99.90;;;;;;5018375;28;20056;-75
2023/12/01 05:17:59;;;;;;;30.25;15.10;;;-1.80;99.90;;;;;;5009818;28;20444;-74
2023/12/01 05:20:27;;;;;;;35.63;16.00;;;-1.70;99.90;;;;;;5002158;28;20114;-75
2023/12/01 05:22:58;;;;;;;35.75;16.00;;;-1.80;99.90;;;;;;5009435;28;20080;-75
2023/12/01 05:25:26;;;;;;;29.85;14.98;;;-1.70;99.90;;;;;;5003147;28;20033;-75
2023/12/01 05:27:54;;;;;;;34.22;16.35;;;-1.70;99.90;;;;;;5000578;28;20774;-75
2023/12/01 05:30:24;;;;;;;30.67;14.15;;;-1.70;99.90;;;;;;4995574;28;20046;-74
2023/12/01 05:32:51;;;;;;;31.08;15.45;;;-1.80;99.90;;;;;;4994061;28;20140;-74
2023/12/01 05:35:18;;;;;;;29.30;14.27;;;-1.70;99.90;;;;;;5001315;28;20053;-75
2023/12/01 05:37:50;;;;;;;26.77;14.68;;;-1.70;99.90;;;;;;5006743;28;20049;-75
2023/12/01 05:40:27;;;;;;;28.92;14.52;;;-1.80;99.90;;;;;;5003933;28;20065;-76
2023/12/01 05:42:54;;;;;;;28.80;14.82;;;-1.80;99.90;;;;;;4999831;28;20077;-75
2023/12/01 05:45:21;;;;;;;29.92;15.13;;;-1.70;99.90;;;;;;5006833;28;20124;-75
2023/12/01 05:47:52;;;;;;;36.00;16.10;;;-1.70;99.90;;;;;;4996505;28;20046;-75
2023/12/01 05:50:29;;;;;;;32.10;16.58;;;-1.70;99.90;;;;;;4994830;28;20390;-76
2023/12/01 05:52:56;;;;;;;34.47;16.42;;;-1.80;99.90;;;;;;5007198;28;20444;-74
2023/12/01 05:55:27;;;;;;;34.17;16.77;;;-1.70;99.90;;;;;;5002572;28;20045;-75
2023/12/01 05:57:54;;;;;;;31.05;16.30;;;-1.60;99.90;;;;;;5006116;28;20042;-75
2023/12/01 06:00:29;;;;;;;28.45;14.77;;;-1.70;99.90;;;;;;5007709;28;20486;-75
2023/12/01 06:02:57;;;;;;;33.58;16.27;;;-1.60;99.90;;;;;;4993541;28;20052;-75
2023/12/01 06:05:23;;;;;;;28.10;15.60;;;-0.90;99.90;;;;;;5014775;28;20042;-74
2023/12/01 06:07:54;;;;;;;27.98;15.18;;;-1.80;99.90;;;;;;5013170;28;20050;-75
2023/12/01 06:10:24;;;;;;;29.42;14.27;;;-1.70;99.90;;;;;;5034524;28;20034;-75
2023/12/01 06:12:50;;;;;;;26.30;14.38;;;-1.70;99.90;;;;;;5003678;28;20108;-75
2023/12/01 06:15:20;;;;;;;25.55;13.40;;;-1.60;99.90;;;;;;4997849;28;20113;-75
2023/12/01 06:17:48;;;;;;;28.60;14.55;;;-1.70;99.90;;;;;;5002871;28;20107;-75
2023/12/01 06:20:18;;;;;;;24.88;13.65;;;-1.70;99.90;;;;;;5024478;28;20113;-75
2023/12/01 06:22:52;;;;;;;27.25;14.55;;;-1.70;99.90;;;;;;4996706;28;20903;-75
2023/12/01 06:25:20;;;;;;;25.38;13.13;;;-1.70;99.90;;;;;;5011759;28;20075;-75
2023/12/01 06:27:46;;;;;;;24.52;12.52;;;-1.70;99.90;;;;;;5011788;28;20037;-76
2023/12/01 06:30:14;;;;;;;25.75;13.18;;;-1.70;99.90;;;;;;5023945;28;20037;-75
2023/12/01 06:32:44;;;;;;;24.67;13.38;;;-1.70;99.90;;;;;;5011633;28;20083;-75
2023/12/01 06:35:13;;;;;;;23.13;12.55;;;-1.70;99.90;;;;;;5024006;28;20474;-75
2023/12/01 06:37:40;;;;;;;25.95;12.98;;;-1.70;99.90;;;;;;4993532;28;20041;-75
2023/12/01 06:40:15;;;;;;;24.70;13.48;;;-1.80;99.90;;;;;;5011621;28;20030;-74
2023/12/01 06:42:49;;;;;;;25.42;13.65;;;-1.80;99.90;;;;;;5012928;28;20041;-76
2023/12/01 06:45:21;;;;;;;25.92;13.75;;;-1.80;99.90;;;;;;4994596;28;20038;-75
2023/12/01 06:47:48;;;;;;;25.23;13.02;;;-1.80;99.90;;;;;;5028649;28;20052;-75
2023/12/01 06:50:18;;;;;;;28.52;13.80;;;-1.80;99.90;;;;;;5011613;28;20183;-75
2023/12/01 06:52:48;;;;;;;25.20;13.13;;;-1.80;99.90;;;;;;5023598;28;20041;-76
2023/12/01 06:55:15;;;;;;;26.30;13.43;;;-1.80;99.90;;;;;;5015151;28;20432;-75
2023/12/01 06:57:42;;;;;;;25.17;13.10;;;-1.90;99.90;;;;;;4996368;28;20044;-75
2023/12/01 07:00:10;;;;;;;25.00;12.88;;;-1.70;99.90;;;;;;5009340;28;20124;-75
2023/12/01 07:02:40;;;;;;;25.90;13.43;;;-1.70;99.90;;;;;;5010662;28;20106;-76
2023/12/01 07:05:08;;;;;;;24.60;12.68;;;-1.80;99.90;;;;;;5012890;28;20037;-75
2023/12/01 07:07:34;;;;;;;25.65;13.05;;;-1.80;99.90;;;;;;4997663;28;20079;-76
2023/12/01 07:10:02;;;;;;;23.98;12.73;;;-1.90;99.90;;;;;;5010341;28;20583;-75
2023/12/01 07:12:30;;;;;;;28.13;14.38;;;-2.00;99.90;;;;;;4995805;28;20069;-75
2023/12/01 07:14:56;;;;;;;27.60;14.02;;;-1.90;99.90;;;;;;5013883;28;20040;-75
2023/12/01 07:17:22;;;;;;;25.70;13.60;;;-2.10;99.90;;;;;;5013300;28;20089;-75
2023/12/01 07:19:48;;;;;;;25.27;13.93;;;-2.10;99.90;;;;;;5010124;28;20120;-75
2023/12/01 07:22:14;;;;;;;27.00;14.07;;;-2.10;99.90;;;;;;5006764;28;20492;-75
2023/12/01 07:24:43;;;;;;;24.25;13.65;;;-2.10;99.90;;;;;;5011436;28;20076;-75
2023/12/01 07:27:09;;;;;;;;;;;-2.10;99.90;;;;;;5010964;28;20053;-75
2023/12/01 07:29:39;;;;;;;28.38;13.55;;;-2.10;99.90;;;;;;5011155;28;20008;-75
2023/12/01 07:32:05;;;;;;;29.17;14.20;;;-2.10;99.90;;;;;;5013114;28;20041;-75
2023/12/01 07:34:31;;;;;;;26.42;13.95;;;-2.10;99.90;;;;;;5013235;28;20052;-75
2023/12/01 07:36:56;;;;;;;26.77;13.40;;;-2.10;99.90;;;;;;5012779;28;20052;-75
2023/12/01 07:39:23;;;;;;;24.98;13.98;;;-2.00;99.90;;;;;;5023853;28;20037;-74
2023/12/01 07:41:50;;;;;;;26.20;13.40;;;-1.50;99.90;;;;;;5012659;28;20077;-75
2023/12/01 07:44:16;;;;;;;27.95;14.18;;;-2.00;99.90;;;;;;5019724;28;20042;-75
2023/12/01 07:46:41;;;;;;;29.17;15.00;;;-2.00;99.90;;;;;;5017792;28;20045;-77
2023/12/01 07:49:11;;;;;;;32.00;15.68;;;-1.90;99.90;;;;;;5017038;28;20577;-75
2023/12/01 07:51:38;;;;;;;32.42;15.68;;;-1.90;99.90;;;;;;4985801;28;20045;-75
2023/12/01 07:54:04;;;;;;;31.17;15.18;;;-1.90;99.90;;;;;;5016538;28;20051;-74
2023/12/01 07:56:29;;;;;;;32.97;16.65;;;-1.80;99.90;;;;;;5027054;28;20152;-74
2023/12/01 07:58:55;;;;;;;31.23;16.25;;;-2.00;99.90;;;;;;5026539;28;20120;-76
2023/12/01 08:01:22;;;;;;;32.08;15.70;;;-1.90;99.90;;;;;;5016390;28;20041;-74
2023/12/01 08:03:48;;;;;;;33.97;15.70;;;-1.60;99.90;;;;;;5028292;28;20052;-74
2023/12/01 08:06:14;;;;;;;31.75;16.40;;;-1.90;99.90;;;;;;5016318;28;20034;-74
2023/12/01 08:08:41;;;;;;;35.92;16.88;;;-2.00;99.90;;;;;;5014752;28;20049;-75
2023/12/01 08:11:07;;;;;;;34.97;16.88;;;-1.90;99.90;;;;;;5012445;28;20052;-75
2023/12/01 08:13:33;;;;;;;35.45;16.17;;;-1.90;99.90;;;;;;5028106;28;20340;-74
2023/12/01 08:15:59;;;;;;;33.25;14.80;;;-1.80;99.90;;;;;;5016337;28;20042;-75
2023/12/01 08:18:25;;;;;;;32.90;16.45;;;-1.90;99.90;;;;;;5032070;28;20037;-75
2023/12/01 08:20:51;;;;;;;37.22;17.67;;;-1.80;99.90;;;;;;5014002;28;20061;-74
2023/12/01 08:23:17;;;;;;;34.10;17.95;;;-1.80;99.90;;;;;;5002205;28;20038;-73
2023/12/01 08:25:43;;;;;;;35.35;18.00;;;-1.80;99.90;;;;;;5012979;28;20053;-74
2023/12/01 08:28:10;;;;;;;32.97;17.25;;;-1.80;99.90;;;;;;4997183;28;20041;-74
2023/12/01 08:30:36;;;;;;;30.95;16.15;;;-1.70;99.90;;;;;;5002951;28;20038;-75
2023/12/01 08:33:05;;;;;;;32.22;17.10;;;-1.60;99.90;;;;;;4997901;28;20048;-74
2023/12/01 08:35:31;;;;;;;35.25;17.42;;;-1.60;99.90;;;;;;5026152;28;20041;-75
2023/12/01 08:37:57;;;;;;;33.17;18.35;;;-1.60;99.90;;;;;;5014261;28;20047;-74
2023/12/01 08:40:23;;;;;;;31.85;16.38;;;-1.40;99.90;;;;;;5022874;28;21591;-74
2023/12/01 08:42:52;;;;;;;35.47;18.50;;;-1.50;99.90;;;;;;5025583;28;20090;-73
2023/12/01 08:45:18;;;;;;;;;;;-1.40;99.90;;;;;;5015484;28;20053;-74
2023/12/01 08:47:44;;;;;;;32.42;15.85;;;-1.40;99.90;;;;;;5014239;28;20667;-74
2023/12/01 08:50:10;;;;;;;33.25;16.98;;;-1.50;99.90;;;;;;5014880;28;20052;-73
2023/12/01 08:52:37;;;;;;;28.90;15.52;;;-1.40;99.90;;;;;;5014232;28;20042;-76
2023/12/01 08:55:03;;;;;;;36.38;17.35;;;-1.30;99.90;;;;;;5014949;28;20121;-76
2023/12/01 08:57:29;;;;;;;30.88;16.25;;;-1.30;99.90;;;;;;5014257;28;20037;-76
2023/12/01 08:59:55;;;;;;;34.08;15.80;;;-1.20;99.90;;;;;;5015423;28;20033;-76
2023/12/01 09:02:20;;;;;;;29.27;15.98;;;-1.20;99.90;;;;;;5011657;28;20042;-76
2023/12/01 09:04:46;;;;;;;28.65;15.55;;;-1.10;99.90;;;;;;4998004;28;20049;-76
2023/12/01 09:07:12;;;;;;;34.38;16.15;;;-1.10;99.90;;;;;;5011264;28;20047;-76
2023/12/01 09:09:38;;;;;;;25.60;15.30;;;-1.00;99.90;;;;;;4996168;28;20045;-77
2023/12/01 09:12:06;;;;;;;28.07;14.13;;;-1.00;99.90;;;;;;4997737;28;20037;-75
2023/12/01 09:14:32;;;;;;;27.33;14.27;;;-1.10;99.90;;;;;;5014146;28;20037;-76
2023/12/01 09:16:57;;;;;;;26.75;14.63;;;-1.00;99.90;;;;;;4997161;28;20423;-77
2023/12/01 09:19:23;;;;;;;27.63;13.60;;;-1.00;99.90;;;;;;5012664;28;20041;-75
2023/12/01 09:21:49;;;;;;;26.70;14.50;;;-1.00;99.90;;;;;;5011928;28;20049;-76
2023/12/01 09:24:15;;;;;;;30.98;16.98;;;-0.90;99.90;;;;;;5015157;28;20056;-76
2023/12/01 09:26:40;;;;;;;27.60;15.35;;;-0.90;99.90;;;;;;4998968;28;20049;-77
2023/12/01 09:29:06;;;;;;;26.95;15.02;;;-0.80;99.90;;;;;;5012321;28;20049;-76
2023/12/01 09:31:32;;;;;;;28.90;14.95;;;-0.70;99.90;;;;;;4991771;28;20706;-75
2023/12/01 09:33:57;;;;;;;25.52;14.38;;;-0.70;99.90;;;;;;5012489;28;20041;-75
2023/12/01 09:36:25;;;;;;;27.60;14.70;;;-0.70;99.90;;;;;;5012258;28;20750;-75
2023/12/01 09:38:51;;;;;;;27.73;15.65;;;-0.70;99.90;;;;;;5012702;28;20041;-78
2023/12/01 09:41:17;;;;;;;26.27;15.43;;;-0.70;99.90;;;;;;4992380;28;20763;-75
2023/12/01 09:43:47;;;;;;;31.33;15.35;;;-0.60;99.90;;;;;;5010903;28;20051;-75
2023/12/01 09:46:14;;;;;;;26.90;15.45;;;-0.50;99.90;;;;;;5011195;28;20060;-75
2023/12/01 09:48:42;;;;;;;27.80;14.73;;;-0.50;99.90;;;;;;5008200;28;20042;-75
2023/12/01 09:51:08;;;;;;;26.92;14.95;;;-0.30;99.90;;;;;;5010047;28;20074;-76
2023/12/01 09:53:34;;;;;;;25.45;14.20;;;-0.20;99.90;;;;;;4990060;28;21168;-75
2023/12/01 09:56:03;;;;;;;28.00;13.88;;;-0.10;99.90;;;;;;5009283;28;20303;-76
2023/12/01 09:58:30;;;;;;;25.17;14.45;;;-0.10;99.90;;;;;;5020750;28;20033;-75
2023/12/01 10:00:56;;;;;;;25.25;14.05;;;0.00;99.90;;;;;;4997510;28;20134;-75
2023/12/01 10:03:22;;;;;;;23.55;13.95;;;0.30;99.90;;;;;;5009995;28;20045;-75
2023/12/01 10:05:48;;;;;;;27.00;15.25;;;0.10;99.90;;;;;;5012956;28;20041;-75
2023/12/01 10:08:16;;;;;;;24.70;14.57;;;0.10;99.90;;;;;;5012739;28;20430;-76
2023/12/01 10:10:44;;;;;;;27.10;14.90;;;0.20;99.90;;;;;;4995606;28;20557;-75
2023/12/01 10:13:11;;;;;;;27.50;15.50;;;0.30;99.90;;;;;;5023358;28;20510;-76
2023/12/01 10:15:38;;;;;;;24.67;14.52;;;0.40;99.90;;;;;;5010647;28;20659;-75
2023/12/01 10:18:19;;;;;;;28.58;14.65;;;0.50;99.90;;;;;;5011478;28;20068;-75
2023/12/01 10:21:03;;;;;;;24.13;14.00;;;0.50;99.90;;;;;;5013510;28;20080;-76
2023/12/01 10:23:30;;;;;;;24.60;14.35;;;0.50;99.90;;;;;;5012242;28;20443;-75
2023/12/01 10:25:56;;;;;;;22.77;13.82;;;0.50;99.90;;;;;;5011800;28;20048;-76
2023/12/01 10:28:36;;;;;;;25.60;15.10;;;0.60;99.90;;;;;;5024432;28;20044;-75
2023/12/01 10:31:03;;;;;;;26.73;15.10;;;0.50;99.90;;;;;;4998863;28;20037;-75
2023/12/01 10:33:29;;;;;;;26.63;15.00;;;0.50;99.90;;;;;;5011155;28;20048;-76
2023/12/01 10:36:01;;;;;;;24.25;14.05;;;0.60;99.90;;;;;;5012948;28;20045;-75
2023/12/01 10:38:29;;;;;;;23.08;13.95;;;0.70;99.90;;;;;;5011744;28;20136;-74
2023/12/01 10:40:56;;;;;;;26.60;14.45;;;0.70;99.90;;;;;;5009516;28;20056;-75
2023/12/01 10:43:22;;;;;;;24.33;14.18;;;0.80;99.90;;;;;;5010143;28;20041;-75
2023/12/01 10:45:52;;;;;;;24.17;13.75;;;0.80;99.90;;;;;;4994751;28;20045;-77
2023/12/01 10:48:19;;;;;;;24.45;13.60;;;0.80;99.90;;;;;;5004428;28;20049;-75
2023/12/01 10:50:49;;;;;;;24.52;15.63;;;1.00;99.90;;;;;;5007430;28;20052;-76
2023/12/01 10:53:18;;;;;;;26.55;15.90;;;1.80;99.90;;;;;;5012246;28;20045;-76
2023/12/01 10:55:46;;;;;;;25.13;14.63;;;1.00;99.90;;;;;;5013828;28;20060;-76
2023/12/01 10:58:20;;;;;;;20.60;13.32;;;1.00;99.90;;;;;;5012934;28;20072;-76
2023/12/01 11:00:48;;;;;;;22.90;13.50;;;1.10;99.90;;;;;;4995575;28;20381;-77
2023/12/01 11:03:19;;;;;;;21.42;12.73;;;1.10;99.90;;;;;;5013866;28;20129;-76
2023/12/01 11:05:51;;;;;;;25.17;13.93;;;1.10;99.90;;;;;;5013558;28;20380;-77
2023/12/01 11:08:36;;;;;;;25.63;14.43;;;1.20;99.90;;;;;;5028145;28;20048;-75
2023/12/01 11:11:07;;;;;;;24.27;13.98;;;1.10;99.90;;;;;;5022468;28;20049;-76
2023/12/01 11:14:08;;;;;;;25.85;15.02;;;1.00;99.90;;;;;;5009416;28;20116;-76
2023/12/01 11:16:34;;;;;;;22.90;14.20;;;1.00;99.90;;;;;;5021985;28;20075;-75
2023/12/01 11:19:00;;;;;;;25.60;14.43;;;1.10;99.90;;;;;;5012331;28;20125;-76
2023/12/01 11:21:26;;;;;;;23.13;13.65;;;1.00;99.90;;;;;;5014368;28;20041;-76
2023/12/01 11:23:52;;;;;;;25.27;15.32;;;1.00;99.90;;;;;;5010780;28;20051;-75
2023/12/01 11:26:18;;;;;;;23.02;13.23;;;1.00;99.90;;;;;;5023200;28;20045;-75
2023/12/01 11:28:46;;;;;;;25.75;14.63;;;1.10;99.90;;;;;;5011865;28;20041;-75
2023/12/01 11:33:52;;;;;;;24.23;13.68;;;1.20;99.90;;;;;;5023506;28;20048;-76
2023/12/01 11:36:29;;;;;;;26.60;14.70;;;1.20;99.90;;;;;;5012837;28;20403;-75
2023/12/01 11:41:43;;;;;;;22.27;13.52;;;1.30;99.90;;;;;;5011325;28;20054;-77
2023/12/01 11:44:13;;;;;;;24.83;14.93;;;1.30;99.90;;;;;;5022697;28;20395;-75
2023/12/01 11:46:38;;;;;;;;;;;1.40;99.90;;;;;;5021380;28;20049;-75
2023/12/01 11:49:05;;;;;;;22.92;13.30;;;1.40;99.90;;;;;;5012758;28;19973;-76
2023/12/01 11:51:31;;;;;;;26.13;15.32;;;1.30;99.90;;;;;;5012832;28;20045;-76
2023/12/01 11:54:03;;;;;;;25.83;14.25;;;1.20;99.90;;;;;;5027956;28;20042;-76
2023/12/01 11:56:39;;;;;;;25.30;14.60;;;1.30;99.90;;;;;;5013483;28;20049;-76
2023/12/01 11:59:08;;;;;;;25.52;15.00;;;1.20;99.90;;;;;;5009619;28;20373;-76
2023/12/01 12:01:34;;;;;;;28.27;14.95;;;1.20;99.90;;;;;;5006565;28;20045;-77
2023/12/01 12:04:00;;;;;;;26.15;14.35;;;1.20;99.90;;;;;;4996664;28;20118;-75
2023/12/01 12:06:25;;;;;;;28.55;15.60;;;1.20;99.90;;;;;;4996721;28;20488;-76
2023/12/01 12:08:52;;;;;;;26.10;15.57;;;1.80;99.90;;;;;;5028766;28;20068;-76
2023/12/01 12:11:19;;;;;;;27.98;15.60;;;1.70;99.90;;;;;;5023899;28;20416;-75
2023/12/01 12:13:54;;;;;;;27.35;15.05;;;1.20;99.90;;;;;;5023161;28;20104;-76
2023/12/01 12:16:23;;;;;;;25.50;14.55;;;1.10;99.90;;;;;;5009558;28;20045;-76
2023/12/01 12:18:50;;;;;;;23.80;14.25;;;1.20;99.90;;;;;;5002780;28;20038;-76
2023/12/01 12:21:15;;;;;;;26.73;14.07;;;1.30;99.90;;;;;;5011499;28;20675;-76
2023/12/01 12:23:41;;;;;;;27.70;15.23;;;1.30;99.90;;;;;;5012816;28;20045;-76
2023/12/01 12:26:17;;;;;;;25.60;15.23;;;1.40;99.90;;;;;;5013739;28;20044;-77
2023/12/01 12:28:47;;;;;;;22.85;13.93;;;1.30;99.90;;;;;;5015185;28;20045;-77
2023/12/01 12:31:14;;;;;;;29.77;16.10;;;1.30;99.90;;;;;;5010712;28;20037;-78
2023/12/01 12:33:40;;;;;;;26.33;15.15;;;1.30;99.90;;;;;;5014325;28;20081;-78
2023/12/01 12:36:07;;;;;;;25.98;15.02;;;1.10;99.90;;;;;;4995705;28;20083;-78
2023/12/01 12:38:33;;;;;;;24.73;14.55;;;1.10;99.90;;;;;;4998969;28;20091;-77